Time;durP1;ratioP1;P1;durP2;ratioP2;P2;SDS_P1;SDS_P2;PMS_P1;PMS_P2;Temp;Humidity;BMP_temperature;BMP_pressure;BME280_temperature;BME280_humidity;BME280_pressure;Samples;Min_cycle;Max_cycle;Signal;HPM_P1;HPM_P2
2023/08/05 00:00:55;;;;;;;6.10;3.47;;;15.80;99.90;;;;;;4974279;28;20411;-79
2023/08/05 00:03:20;;;;;;;6.18;3.38;;;15.80;99.90;;;;;;4974693;28;20034;-79
2023/08/05 00:05:46;;;;;;;8.35;3.70;;;15.80;99.90;;;;;;4969965;28;20042;-79
2023/08/05 00:08:12;;;;;;;5.47;3.42;;;15.80;99.90;;;;;;4988674;28;20416;-79
2023/08/05 00:10:42;;;;;;;4.78;3.13;;;15.70;99.90;;;;;;4970094;28;20112;-79
2023/08/05 00:13:08;;;;;;;6.13;3.70;;;15.70;99.90;;;;;;4989019;28;20408;-79
2023/08/05 00:15:33;;;;;;;6.57;3.40;;;15.70;99.90;;;;;;4975857;28;20114;-79
2023/08/05 00:17:59;;;;;;;5.90;3.60;;;15.70;99.90;;;;;;4972418;28;20046;-79
2023/08/05 00:20:24;;;;;;;5.13;3.78;;;15.60;99.90;;;;;;4968310;28;20039;-79
2023/08/05 00:22:50;;;;;;;6.93;3.83;;;15.70;99.90;;;;;;4967885;28;20038;-79
2023/08/05 00:25:16;;;;;;;5.28;3.45;;;15.70;99.90;;;;;;4972201;28;20049;-79
2023/08/05 00:27:41;;;;;;;8.43;3.58;;;15.60;99.90;;;;;;4974543;28;20585;-80
2023/08/05 00:30:08;;;;;;;5.22;3.50;;;15.60;99.90;;;;;;4973035;28;20045;-80
2023/08/05 00:32:36;;;;;;;9.88;4.50;;;15.60;99.90;;;;;;4967466;28;20565;-80
2023/08/05 00:35:05;;;;;;;5.55;3.78;;;15.70;99.90;;;;;;4991204;28;20113;-80
2023/08/05 00:37:31;;;;;;;9.98;3.25;;;15.70;99.90;;;;;;4968876;28;20046;-79
2023/08/05 00:39:57;;;;;;;5.72;3.15;;;15.70;99.90;;;;;;4975282;28;20046;-80
2023/08/05 00:42:23;;;;;;;8.02;3.50;;;15.70;99.90;;;;;;4968568;28;20043;-80
2023/08/05 00:44:48;;;;;;;5.72;2.97;;;15.70;99.90;;;;;;4975226;28;20038;-79
2023/08/05 00:47:18;;;;;;;8.20;3.50;;;15.70;99.90;;;;;;4974678;28;20042;-79
2023/08/05 00:49:45;;;;;;;7.22;3.20;;;15.70;99.90;;;;;;4966816;28;20038;-80
2023/08/05 00:52:13;;;;;;;5.78;3.67;;;15.70;99.90;;;;;;4976671;28;20069;-79
2023/08/05 00:54:39;;;;;;;7.20;2.92;;;15.70;99.90;;;;;;4967083;28;20050;-80
2023/08/05 00:57:06;;;;;;;6.28;3.38;;;15.70;99.90;;;;;;4964196;28;20434;-80
2023/08/05 00:59:31;;;;;;;6.35;2.92;;;15.70;99.90;;;;;;4967396;28;20519;-79
2023/08/05 01:01:57;;;;;;;7.03;2.80;;;15.70;99.90;;;;;;4972230;28;20035;-79
2023/08/05 01:04:22;;;;;;;4.53;3.03;;;15.70;99.90;;;;;;4963172;28;20035;-79
2023/08/05 01:06:50;;;;;;;4.57;2.80;;;15.70;99.90;;;;;;4976039;28;20093;-79
2023/08/05 01:09:15;;;;;;;4.82;2.90;;;15.60;99.90;;;;;;4972767;28;20045;-80
2023/08/05 01:11:41;;;;;;;4.75;2.83;;;15.60;99.90;;;;;;4964750;28;20038;-79
2023/08/05 01:14:06;;;;;;;4.45;3.00;;;15.60;99.90;;;;;;4989422;28;20113;-79
2023/08/05 01:16:32;;;;;;;4.82;3.00;;;15.60;99.90;;;;;;4971030;28;20096;-79
2023/08/05 01:18:58;;;;;;;5.32;3.10;;;15.50;99.90;;;;;;4970903;28;20478;-79
2023/08/05 01:21:47;;;;;;;4.85;3.08;;;15.50;99.90;;;;;;4967689;28;20046;-79
2023/08/05 01:24:24;;;;;;;7.20;3.05;;;15.40;99.90;;;;;;4975821;28;20035;-80
2023/08/05 01:26:51;;;;;;;5.18;3.40;;;15.40;99.90;;;;;;4979880;28;20030;-79
2023/08/05 01:29:17;;;;;;;9.32;3.45;;;15.40;99.90;;;;;;4971115;28;20034;-79
2023/08/05 01:31:45;;;;;;;7.68;3.33;;;15.30;99.90;;;;;;4964052;28;20104;-79
2023/08/05 01:34:11;;;;;;;7.25;3.78;;;15.20;99.90;;;;;;4973405;28;20100;-79
2023/08/05 01:36:37;;;;;;;6.40;3.38;;;15.20;99.90;;;;;;4977498;28;20049;-79
2023/08/05 01:39:03;;;;;;;5.15;3.33;;;15.30;99.90;;;;;;4977286;28;20044;-79
2023/08/05 01:41:28;;;;;;;7.72;3.78;;;15.30;99.90;;;;;;4962282;28;20038;-80
2023/08/05 01:43:54;;;;;;;7.90;3.70;;;15.20;99.90;;;;;;4976106;28;20042;-79
2023/08/05 01:46:19;;;;;;;12.18;3.65;;;15.20;99.90;;;;;;4970847;28;20069;-80
2023/08/05 01:48:45;;;;;;;6.53;3.83;;;15.10;99.90;;;;;;4971075;28;20042;-80
2023/08/05 01:51:10;;;;;;;6.63;3.40;;;15.00;99.90;;;;;;4968674;28;20090;-80
2023/08/05 01:53:36;;;;;;;8.32;3.90;;;14.90;99.90;;;;;;4997139;28;20047;-80
2023/08/05 01:56:02;;;;;;;7.55;3.80;;;14.80;99.90;;;;;;4970755;28;20125;-80
2023/08/05 01:58:27;;;;;;;6.68;3.53;;;14.70;99.90;;;;;;4979793;28;20037;-79
2023/08/05 02:00:53;;;;;;;7.80;4.13;;;14.70;99.90;;;;;;4974892;28;20043;-80
2023/08/05 02:03:19;;;;;;;7.28;3.70;;;14.60;99.90;;;;;;4973689;28;20042;-79
2023/08/05 02:05:45;;;;;;;9.40;3.70;;;14.50;99.90;;;;;;4965696;28;20030;-79
2023/08/05 02:08:11;;;;;;;5.38;3.28;;;14.30;99.90;;;;;;4970700;28;20390;-79
2023/08/05 02:10:37;;;;;;;6.32;3.92;;;14.10;99.90;;;;;;4975469;28;20485;-79
2023/08/05 02:13:06;;;;;;;5.85;3.70;;;14.00;99.90;;;;;;4969695;28;20104;-79
2023/08/05 02:15:31;;;;;;;7.35;3.45;;;14.00;99.90;;;;;;4975236;28;20052;-79
2023/08/05 02:17:57;;;;;;;5.78;3.53;;;14.00;99.90;;;;;;4984288;28;20109;-79
2023/08/05 02:20:22;;;;;;;6.20;3.75;;;14.00;99.90;;;;;;4985439;28;20111;-79
2023/08/05 02:22:48;;;;;;;6.95;4.30;;;14.00;99.90;;;;;;4989351;28;20039;-79
2023/08/05 02:25:13;;;;;;;10.73;4.93;;;14.00;99.90;;;;;;4951516;28;20414;-79
2023/08/05 02:27:39;;;;;;;5.05;3.42;;;14.00;99.90;;;;;;4972649;28;20038;-79
2023/08/05 02:30:06;;;;;;;4.78;3.47;;;14.00;99.90;;;;;;4991541;28;20092;-79
2023/08/05 02:32:31;;;;;;;5.53;3.55;;;13.90;99.90;;;;;;4974324;28;20057;-79
2023/08/05 02:34:57;;;;;;;9.35;3.78;;;13.80;99.90;;;;;;4969263;28;20405;-79
2023/08/05 02:37:22;;;;;;;7.30;3.83;;;13.90;99.90;;;;;;4967893;28;20049;-78
2023/08/05 02:39:48;;;;;;;7.35;3.60;;;13.90;99.90;;;;;;4959800;28;20038;-79
2023/08/05 02:42:13;;;;;;;6.57;3.38;;;13.90;99.90;;;;;;4969144;28;20038;-78
2023/08/05 02:44:39;;;;;;;4.78;3.58;;;13.80;99.90;;;;;;4972251;28;20116;-79
2023/08/05 02:47:04;;;;;;;8.23;3.75;;;13.80;99.90;;;;;;4968782;28;20115;-79
2023/08/05 02:49:32;;;;;;;7.55;3.55;;;13.80;99.90;;;;;;4969340;28;20045;-79
2023/08/05 02:51:58;;;;;;;6.20;3.55;;;14.10;99.90;;;;;;4985262;28;20036;-79
2023/08/05 02:54:23;;;;;;;6.70;3.55;;;13.80;99.90;;;;;;4975967;28;20118;-79
2023/08/05 02:56:49;;;;;;;5.60;3.50;;;13.80;99.90;;;;;;4964965;28;20030;-79
2023/08/05 02:59:14;;;;;;;5.53;3.70;;;13.80;99.90;;;;;;4968231;28;20109;-78
2023/08/05 03:01:40;;;;;;;5.70;3.40;;;13.80;99.90;;;;;;4970815;28;20049;-78
2023/08/05 03:04:05;;;;;;;6.88;3.47;;;13.80;99.90;;;;;;4973057;28;20133;-79
2023/08/05 03:06:31;;;;;;;5.60;3.80;;;13.80;99.90;;;;;;4967468;28;20117;-79
2023/08/05 03:08:56;;;;;;;6.88;3.50;;;13.80;99.90;;;;;;4959045;28;20169;-79
2023/08/05 03:11:22;;;;;;;4.78;3.40;;;13.80;99.90;;;;;;4984934;28;20110;-79
2023/08/05 03:13:47;;;;;;;6.85;3.35;;;13.80;99.90;;;;;;4965130;28;20069;-79
2023/08/05 03:16:14;;;;;;;6.35;3.30;;;13.80;99.90;;;;;;4987399;28;20125;-79
2023/08/05 03:18:40;;;;;;;6.78;3.65;;;13.70;99.90;;;;;;4959470;28;20654;-78
2023/08/05 03:21:06;;;;;;;6.43;3.50;;;13.70;99.90;;;;;;4967492;28;20050;-78
2023/08/05 03:23:31;;;;;;;7.25;4.57;;;13.70;99.90;;;;;;4974493;28;20031;-78
2023/08/05 03:25:57;;;;;;;13.45;4.32;;;13.70;99.90;;;;;;4973763;28;20110;-79
2023/08/05 03:28:22;;;;;;;6.05;3.92;;;13.80;99.90;;;;;;4975744;28;20096;-78
2023/08/05 03:30:48;;;;;;;9.07;5.05;;;13.90;99.90;;;;;;4987218;28;20145;-78
2023/08/05 03:33:14;;;;;;;7.53;4.60;;;13.90;99.90;;;;;;4974206;28;20038;-79
2023/08/05 03:35:43;;;;;;;7.47;4.55;;;13.90;99.90;;;;;;4971081;28;20038;-78
2023/08/05 03:38:09;;;;;;;6.78;3.92;;;13.90;99.90;;;;;;4972688;28;20046;-79
2023/08/05 03:40:35;;;;;;;9.15;4.22;;;13.90;99.90;;;;;;4956202;28;20553;-79
2023/08/05 03:43:01;;;;;;;7.47;4.13;;;13.90;99.90;;;;;;4974217;28;20405;-78
2023/08/05 03:45:26;;;;;;;10.95;4.40;;;14.00;99.90;;;;;;4971007;28;20035;-79
2023/08/05 03:47:53;;;;;;;7.97;4.53;;;14.00;99.90;;;;;;4966636;28;20521;-78
2023/08/05 03:50:20;;;;;;;8.43;4.55;;;14.10;99.90;;;;;;4953527;28;20034;-78
2023/08/05 03:52:48;;;;;;;6.38;4.32;;;14.10;99.90;;;;;;4963059;28;20043;-79
2023/08/05 03:55:14;;;;;;;6.43;4.30;;;14.00;99.90;;;;;;4970353;28;20117;-78
2023/08/05 03:57:40;;;;;;;5.57;4.28;;;14.20;99.90;;;;;;4974444;28;20524;-79
2023/08/05 04:00:09;;;;;;;6.90;4.18;;;14.20;99.90;;;;;;4969117;28;20039;-79
2023/08/05 04:02:35;;;;;;;7.10;4.05;;;14.20;99.90;;;;;;4973077;28;20213;-79
2023/08/05 04:05:01;;;;;;;10.07;4.80;;;14.20;99.90;;;;;;4990497;28;20038;-79
2023/08/05 04:07:26;;;;;;;7.80;4.45;;;14.30;99.90;;;;;;4974468;28;20536;-79
2023/08/05 04:09:53;;;;;;;6.43;3.67;;;14.30;99.90;;;;;;4974257;28;20041;-79
2023/08/05 04:12:19;;;;;;;6.03;4.15;;;14.20;99.90;;;;;;4968216;28;20038;-79
2023/08/05 04:14:44;;;;;;;7.32;3.95;;;14.20;99.90;;;;;;4954091;28;20045;-79
2023/08/05 04:17:14;;;;;;;9.25;4.40;;;14.30;99.90;;;;;;4972753;28;20034;-79
2023/08/05 04:19:41;;;;;;;5.43;3.80;;;14.30;99.90;;;;;;4968950;28;20038;-79
2023/08/05 04:22:06;;;;;;;6.82;4.00;;;14.30;99.90;;;;;;4990322;28;20054;-79
2023/08/05 04:24:32;;;;;;;5.22;3.88;;;14.40;99.90;;;;;;4973852;28;20413;-79
2023/08/05 04:26:58;;;;;;;7.72;4.13;;;14.40;99.90;;;;;;4977996;28;20076;-79
2023/08/05 04:29:24;;;;;;;8.40;4.03;;;14.40;99.90;;;;;;4975378;28;20034;-79
2023/08/05 04:31:50;;;;;;;6.75;3.70;;;14.40;99.90;;;;;;4974584;28;20031;-79
2023/08/05 04:34:15;;;;;;;7.25;3.83;;;14.40;99.90;;;;;;4974581;28;20042;-79
2023/08/05 04:36:47;;;;;;;5.90;4.00;;;14.40;99.90;;;;;;4977270;28;20046;-79
2023/08/05 04:39:12;;;;;;;7.78;3.80;;;14.40;99.90;;;;;;4983041;28;20441;-79
2023/08/05 04:41:39;;;;;;;8.85;3.83;;;14.30;99.90;;;;;;4975231;28;20121;-78
2023/08/05 04:44:05;;;;;;;8.10;3.90;;;14.30;99.90;;;;;;4982587;28;20409;-79
2023/08/05 04:46:30;;;;;;;8.52;3.70;;;14.40;99.90;;;;;;4990551;28;20042;-79
2023/08/05 04:48:56;;;;;;;10.85;3.85;;;14.40;99.90;;;;;;4987714;28;20046;-79
2023/08/05 04:51:21;;;;;;;6.50;3.65;;;14.40;99.90;;;;;;4986893;28;20060;-79
2023/08/05 04:53:47;;;;;;;6.85;3.60;;;14.40;99.90;;;;;;4988846;28;20529;-79
2023/08/05 04:56:12;;;;;;;7.63;4.05;;;14.40;99.90;;;;;;4989493;28;20100;-79
2023/08/05 04:58:38;;;;;;;12.82;4.93;;;14.40;99.90;;;;;;4990637;28;20077;-79
2023/08/05 05:01:03;;;;;;;7.18;3.67;;;14.40;99.90;;;;;;4973292;28;20044;-79
2023/08/05 05:03:29;;;;;;;7.70;3.75;;;14.40;99.90;;;;;;4980407;28;20405;-79
2023/08/05 05:05:55;;;;;;;6.00;3.40;;;14.50;99.90;;;;;;4979689;28;20409;-79
2023/08/05 05:08:22;;;;;;;7.75;3.55;;;14.60;99.90;;;;;;4988878;28;20045;-79
2023/08/05 05:10:47;;;;;;;6.72;3.92;;;14.60;99.90;;;;;;4989284;28;20053;-79
2023/08/05 05:13:14;;;;;;;9.48;3.42;;;14.60;99.90;;;;;;4980994;28;20038;-79
2023/08/05 05:15:39;;;;;;;5.53;3.45;;;14.80;99.90;;;;;;4978549;28;20043;-79
2023/08/05 05:18:04;;;;;;;6.05;3.25;;;14.70;99.90;;;;;;4979189;28;20045;-79
2023/08/05 05:20:30;;;;;;;5.80;3.25;;;14.80;99.90;;;;;;4989527;28;20042;-79
2023/08/05 05:22:56;;;;;;;9.35;3.08;;;14.80;99.90;;;;;;4978303;28;20132;-79
2023/08/05 05:25:22;;;;;;;7.72;4.55;;;14.80;99.90;;;;;;4978520;28;20035;-79
2023/08/05 05:27:48;;;;;;;5.68;3.38;;;14.80;99.90;;;;;;4979018;28;20034;-79
2023/08/05 05:30:13;;;;;;;7.60;3.58;;;14.80;99.90;;;;;;4977591;28;20461;-79
2023/08/05 05:32:39;;;;;;;6.60;3.13;;;14.80;99.90;;;;;;4995380;28;20047;-79
2023/08/05 05:35:04;;;;;;;7.32;3.28;;;14.90;99.90;;;;;;4993423;28;20106;-79
2023/08/05 05:37:30;;;;;;;8.80;4.35;;;15.00;99.90;;;;;;4970249;28;20510;-79
2023/08/05 05:39:57;;;;;;;7.43;3.67;;;15.10;99.90;;;;;;4978000;28;20050;-79
2023/08/05 05:42:22;;;;;;;7.35;3.38;;;15.20;99.90;;;;;;4977833;28;20054;-79
2023/08/05 05:44:52;;;;;;;8.23;3.40;;;15.20;99.90;;;;;;4977862;28;20531;-79
2023/08/05 05:47:19;;;;;;;5.57;3.30;;;15.30;99.90;;;;;;4976346;28;20039;-79
2023/08/05 05:49:44;;;;;;;8.68;3.33;;;15.30;99.90;;;;;;4973056;28;20038;-79
2023/08/05 05:52:13;;;;;;;9.70;3.30;;;15.30;99.90;;;;;;4974607;28;20034;-79
2023/08/05 05:54:38;;;;;;;5.15;2.83;;;15.30;99.90;;;;;;4969737;28;20572;-79
2023/08/05 05:57:04;;;;;;;7.90;3.28;;;15.30;99.90;;;;;;4976994;28;20046;-79
2023/08/05 05:59:30;;;;;;;6.32;4.03;;;15.40;99.90;;;;;;4976811;28;20046;-79
2023/08/05 06:01:55;;;;;;;7.30;3.45;;;15.40;99.90;;;;;;4976806;28;20137;-79
2023/08/05 06:04:21;;;;;;;6.18;3.60;;;15.50;99.90;;;;;;4975507;28;20039;-78
2023/08/05 06:06:48;;;;;;;10.27;3.60;;;15.60;99.90;;;;;;4977274;28;20030;-79
2023/08/05 06:09:14;;;;;;;7.18;3.33;;;15.80;99.90;;;;;;4991915;28;20053;-79
2023/08/05 06:11:40;;;;;;;7.00;3.60;;;16.00;99.90;;;;;;4978810;28;20046;-79
2023/08/05 06:14:05;;;;;;;5.22;3.55;;;16.00;99.90;;;;;;4978971;28;20046;-79
2023/08/05 06:16:32;;;;;;;6.25;3.30;;;16.10;99.90;;;;;;4980172;28;20038;-79
2023/08/05 06:18:57;;;;;;;6.78;3.58;;;16.20;99.90;;;;;;4980499;28;20455;-79
2023/08/05 06:21:23;;;;;;;6.88;3.20;;;16.20;99.90;;;;;;4972079;28;20121;-80
2023/08/05 06:23:49;;;;;;;7.07;3.33;;;16.30;99.90;;;;;;4969416;28;20066;-79
2023/08/05 06:26:14;;;;;;;6.97;3.15;;;16.30;99.90;;;;;;4979708;28;20041;-79
2023/08/05 06:28:40;;;;;;;6.47;3.67;;;16.40;99.90;;;;;;4980402;28;20070;-80
2023/08/05 06:31:05;;;;;;;10.15;5.55;;;16.50;99.90;;;;;;4975214;28;20521;-79
2023/08/05 06:33:31;;;;;;;17.77;11.23;;;16.50;99.90;;;;;;4954791;28;20038;-79
2023/08/05 06:35:57;;;;;;;15.60;9.18;;;16.50;99.90;;;;;;4973079;28;20045;-79
2023/08/05 06:38:24;;;;;;;15.27;8.50;;;16.50;99.90;;;;;;4954476;28;20038;-80
2023/08/05 06:40:51;;;;;;;9.88;5.50;;;16.60;99.90;;;;;;4985485;28;20425;-79
2023/08/05 06:43:17;;;;;;;9.00;4.15;;;16.60;99.90;;;;;;4977101;28;20088;-79
2023/08/05 06:45:42;;;;;;;6.82;3.70;;;16.60;99.90;;;;;;4977056;28;20126;-79
2023/08/05 06:48:08;;;;;;;8.38;3.40;;;16.70;99.90;;;;;;5007170;28;20037;-79
2023/08/05 06:50:34;;;;;;;6.50;2.88;;;16.80;99.90;;;;;;4988858;28;20041;-79
2023/08/05 06:52:59;;;;;;;4.50;2.30;;;16.90;99.90;;;;;;4993671;28;20501;-79
2023/08/05 06:55:25;;;;;;;5.00;2.42;;;17.20;99.90;;;;;;5003811;28;20472;-80
2023/08/05 06:57:50;;;;;;;5.22;2.40;;;17.40;99.90;;;;;;4965267;28;20498;-79
2023/08/05 07:00:19;;;;;;;7.03;2.40;;;17.60;99.90;;;;;;4990468;28;20046;-79
2023/08/05 07:02:44;;;;;;;5.30;2.25;;;17.70;99.90;;;;;;5002128;28;20094;-80
2023/08/05 07:05:10;;;;;;;5.22;2.40;;;17.80;99.90;;;;;;4969035;28;20046;-79
2023/08/05 07:07:35;;;;;;;4.57;2.58;;;17.80;99.90;;;;;;4979627;28;20049;-80
2023/08/05 07:10:07;;;;;;;7.22;2.80;;;17.70;99.90;;;;;;5002557;28;20033;-79
2023/08/05 07:12:35;;;;;;;5.60;2.38;;;17.70;99.90;;;;;;4980587;28;20043;-80
2023/08/05 07:15:02;;;;;;;4.85;2.25;;;17.50;99.90;;;;;;4978693;28;20105;-80
2023/08/05 07:17:27;;;;;;;4.40;2.20;;;17.60;99.90;;;;;;4978377;28;20051;-79
2023/08/05 07:19:53;;;;;;;5.55;2.20;;;17.60;99.90;;;;;;4975546;28;20046;-79
2023/08/05 07:22:19;;;;;;;5.70;2.40;;;17.70;99.90;;;;;;4956561;28;20052;-79
2023/08/05 07:24:44;;;;;;;3.92;2.45;;;17.70;99.90;;;;;;4976632;28;20042;-79
2023/08/05 07:27:09;;;;;;;6.28;2.90;;;17.70;99.90;;;;;;4977424;28;20047;-80
2023/08/05 07:29:37;;;;;;;5.53;2.90;;;17.70;99.90;;;;;;4978720;28;20101;-79
2023/08/05 07:32:03;;;;;;;7.45;2.70;;;17.80;99.90;;;;;;4981238;28;20029;-80
2023/08/05 07:34:31;;;;;;;4.20;2.67;;;17.70;99.90;;;;;;4972321;28;20041;-79
2023/08/05 07:36:58;;;;;;;3.47;2.50;;;17.70;99.90;;;;;;4975111;28;20046;-79
2023/08/05 07:39:25;;;;;;;5.78;2.60;;;17.70;99.90;;;;;;4957483;28;20045;-80
2023/08/05 07:41:51;;;;;;;4.75;2.40;;;17.70;99.90;;;;;;4977459;28;20099;-79
2023/08/05 07:44:16;;;;;;;5.40;2.38;;;17.70;99.90;;;;;;4976119;28;20122;-80
2023/08/05 07:46:42;;;;;;;6.10;2.00;;;17.70;99.90;;;;;;4992125;28;20046;-80
2023/08/05 07:49:08;;;;;;;3.97;1.92;;;17.70;99.90;;;;;;4976501;28;20034;-80
2023/08/05 07:51:34;;;;;;;4.47;2.15;;;17.80;99.90;;;;;;4974532;28;20151;-80
2023/08/05 07:53:59;;;;;;;5.07;2.08;;;17.90;99.90;;;;;;4972480;28;20502;-80
2023/08/05 07:56:25;;;;;;;3.47;2.10;;;18.00;99.90;;;;;;4971411;28;20057;-80
2023/08/05 07:58:51;;;;;;;3.97;2.38;;;18.10;99.90;;;;;;4971042;28;20038;-79
2023/08/05 08:01:19;;;;;;;5.20;1.92;;;18.30;99.90;;;;;;4980177;28;20042;-79
2023/08/05 08:03:45;;;;;;;4.63;2.30;;;18.50;99.90;;;;;;4979880;28;20457;-79
2023/08/05 08:06:15;;;;;;;5.32;2.30;;;18.50;99.90;;;;;;4980949;28;20041;-79
2023/08/05 08:08:41;;;;;;;4.40;2.13;;;18.60;99.90;;;;;;4973369;28;20121;-79
2023/08/05 08:11:07;;;;;;;5.43;2.20;;;18.70;99.90;;;;;;4975435;28;20375;-80
2023/08/05 08:13:32;;;;;;;5.68;2.28;;;18.70;99.90;;;;;;4950699;28;20110;-79
2023/08/05 08:15:58;;;;;;;5.65;2.30;;;18.70;99.90;;;;;;4964739;28;20039;-79
2023/08/05 08:18:24;;;;;;;3.97;2.30;;;18.70;99.90;;;;;;4967574;28;20046;-79
2023/08/05 08:20:53;;;;;;;3.35;2.38;;;18.80;99.90;;;;;;4994901;28;20538;-79
2023/08/05 08:23:19;;;;;;;4.63;1.80;;;18.80;99.90;;;;;;4975582;28;20041;-80
2023/08/05 08:25:45;;;;;;;4.72;2.20;;;18.90;99.90;;;;;;4968999;28;20042;-80
2023/08/05 08:28:10;;;;;;;4.20;2.30;;;18.90;99.90;;;;;;4979398;28;20048;-79
2023/08/05 08:30:36;;;;;;;6.63;2.28;;;19.00;99.90;;;;;;4974254;28;20437;-79
2023/08/05 08:33:02;;;;;;;3.70;1.98;;;19.10;99.90;;;;;;4976333;28;20040;-80
2023/08/05 08:35:27;;;;;;;4.10;2.50;;;19.40;99.90;;;;;;4970013;28;20046;-80
2023/08/05 08:37:53;;;;;;;4.70;2.30;;;19.40;99.90;;;;;;4968767;28;20043;-80
2023/08/05 08:40:19;;;;;;;5.72;2.58;;;19.50;99.90;;;;;;4972904;28;20041;-80
2023/08/05 08:42:45;;;;;;;4.75;2.28;;;19.60;99.90;;;;;;4983175;28;20061;-80
2023/08/05 08:45:15;;;;;;;3.60;2.22;;;19.70;99.90;;;;;;4975866;28;20145;-80
2023/08/05 08:47:41;;;;;;;3.28;1.88;;;19.90;99.90;;;;;;4960275;28;20042;-81
2023/08/05 08:50:07;;;;;;;4.00;2.22;;;20.00;99.90;;;;;;4968571;28;20031;-79
2023/08/05 08:52:34;;;;;;;4.25;1.98;;;20.40;99.90;;;;;;4971311;28;20502;-80
2023/08/05 08:55:02;;;;;;;5.15;2.28;;;20.50;99.90;;;;;;4951242;28;20034;-79
2023/08/05 08:57:28;;;;;;;4.82;2.20;;;20.60;99.90;;;;;;4979280;28;20062;-79
2023/08/05 08:59:54;;;;;;;3.28;1.80;;;20.60;99.90;;;;;;4964167;28;20129;-80
2023/08/05 09:02:23;;;;;;;5.15;1.90;;;20.50;99.90;;;;;;4973423;28;20096;-80
2023/08/05 09:04:52;;;;;;;4.65;1.80;;;20.60;99.90;;;;;;4974719;28;20093;-80
2023/08/05 09:07:17;;;;;;;4.35;1.80;;;20.70;99.90;;;;;;4987977;28;20046;-77
2023/08/05 09:09:49;;;;;;;3.50;1.83;;;20.60;99.90;;;;;;4973064;28;20046;-79
2023/08/05 09:12:15;;;;;;;5.22;2.00;;;20.60;99.90;;;;;;4972570;28;20401;-81
2023/08/05 09:14:41;;;;;;;3.80;1.80;;;20.60;99.90;;;;;;4979754;28;20035;-79
2023/08/05 09:17:07;;;;;;;5.95;1.90;;;20.60;99.90;;;;;;4990116;28;20097;-80
2023/08/05 09:19:32;;;;;;;4.35;1.58;;;20.60;99.90;;;;;;4987626;28;20663;-79
2023/08/05 09:22:05;;;;;;;4.53;1.70;;;20.40;99.90;;;;;;4975478;28;20465;-80
2023/08/05 09:24:30;;;;;;;4.57;1.83;;;20.40;99.90;;;;;;4978222;28;20493;-79
2023/08/05 09:26:58;;;;;;;3.55;1.58;;;20.60;99.90;;;;;;4959719;28;20041;-80
2023/08/05 09:29:25;;;;;;;3.53;1.75;;;20.60;99.90;;;;;;4979897;28;20084;-80
2023/08/05 09:32:01;;;;;;;3.67;1.63;;;20.60;99.90;;;;;;4963403;28;20033;-80
2023/08/05 09:34:39;;;;;;;4.38;1.90;;;20.60;99.90;;;;;;4970373;28;20088;-79
2023/08/05 09:37:08;;;;;;;3.95;1.63;;;20.60;99.90;;;;;;4970270;28;20073;-80
2023/08/05 09:39:45;;;;;;;6.70;1.75;;;20.50;99.90;;;;;;4981836;28;20043;-80
2023/08/05 09:42:27;;;;;;;2.97;1.80;;;20.70;99.90;;;;;;4990369;28;20046;-79
2023/08/05 09:44:54;;;;;;;2.58;1.60;;;20.80;99.90;;;;;;4960049;28;20062;-79
2023/08/05 09:47:23;;;;;;;2.42;1.63;;;20.70;99.90;;;;;;4982196;28;20046;-80
2023/08/05 09:49:50;;;;;;;5.75;2.05;;;20.90;99.90;;;;;;4961389;28;20049;-81
2023/08/05 09:52:17;;;;;;;2.65;1.60;;;20.90;99.90;;;;;;4984472;28;20037;-80
2023/08/05 09:55:10;;;;;;;3.33;1.58;;;21.00;99.90;;;;;;4985495;28;20121;-79
2023/08/05 09:57:37;;;;;;;4.80;1.73;;;21.00;99.90;;;;;;4973025;28;20556;-79
2023/08/05 10:00:13;;;;;;;3.47;1.52;;;21.10;99.90;;;;;;4974289;28;20038;-78
2023/08/05 10:02:41;;;;;;;4.72;1.70;;;21.10;99.90;;;;;;4985416;28;20065;-78
2023/08/05 10:05:09;;;;;;;2.30;1.48;;;21.00;99.90;;;;;;4978718;28;20046;-79
2023/08/05 10:07:36;;;;;;;3.40;1.50;;;21.00;99.90;;;;;;4987678;28;20038;-80
2023/08/05 10:10:06;;;;;;;2.63;1.60;;;20.80;99.90;;;;;;4989448;28;20038;-76
2023/08/05 10:12:43;;;;;;;2.63;1.35;;;20.60;99.90;;;;;;4987880;28;20037;-79
2023/08/05 10:15:13;;;;;;;2.30;1.70;;;20.80;99.90;;;;;;4968470;28;20091;-79
2023/08/05 10:17:42;;;;;;;3.85;1.65;;;20.90;99.90;;;;;;4984073;28;20042;-77
2023/08/05 10:20:12;;;;;;;2.47;1.50;;;21.20;99.90;;;;;;4981010;28;20049;-79
2023/08/05 10:22:39;;;;;;;4.30;1.83;;;21.10;99.90;;;;;;4958366;28;20046;-79
2023/08/05 10:25:04;;;;;;;2.63;1.40;;;21.50;99.90;;;;;;4963316;28;20092;-78
2023/08/05 10:27:37;;;;;;;2.42;1.38;;;21.50;99.90;;;;;;4984235;28;20034;-78
2023/08/05 10:30:15;;;;;;;2.50;1.47;;;21.80;99.90;;;;;;4982200;28;20042;-78
2023/08/05 10:33:04;;;;;;;3.08;1.83;;;21.90;99.90;;;;;;4963879;28;20042;-78
2023/08/05 10:35:45;;;;;;;2.63;1.40;;;22.00;99.90;;;;;;4979310;28;20116;-78
2023/08/05 10:38:17;;;;;;;3.17;1.50;;;21.80;99.90;;;;;;4994535;28;20037;-77
2023/08/05 10:40:48;;;;;;;3.35;1.70;;;21.60;99.90;;;;;;4978078;28;20130;-77
2023/08/05 10:43:32;;;;;;;4.28;1.60;;;21.50;99.90;;;;;;4987771;28;20042;-78
2023/08/05 10:45:59;;;;;;;3.38;1.80;;;21.60;99.90;;;;;;4991443;28;20033;-78
2023/08/05 10:48:30;;;;;;;3.88;1.45;;;21.90;99.90;;;;;;4976988;28;20113;-79
2023/08/05 10:50:57;;;;;;;4.45;1.70;;;22.00;99.90;;;;;;4972851;28;20042;-78
2023/08/05 10:53:22;;;;;;;4.20;1.63;;;22.20;99.90;;;;;;4964257;28;20070;-79
2023/08/05 10:55:59;;;;;;;5.30;1.55;;;22.40;99.90;;;;;;4981465;28;20070;-78
2023/08/05 10:58:28;;;;;;;2.97;1.95;;;22.40;99.90;;;;;;4980628;28;20042;-78
2023/08/05 11:01:01;;;;;;;2.65;1.55;;;22.30;99.90;;;;;;4975987;28;20413;-77
2023/08/05 11:03:31;;;;;;;6.22;1.75;;;22.40;99.90;;;;;;4987550;28;20030;-78
2023/08/05 11:06:04;;;;;;;2.30;1.40;;;22.40;99.90;;;;;;4971063;28;20029;-78
2023/08/05 11:08:31;;;;;;;4.20;1.58;;;22.50;99.90;;;;;;4979578;28;20113;-78
2023/08/05 11:11:00;;;;;;;3.28;1.60;;;22.40;99.90;;;;;;4973337;28;20061;-77
2023/08/05 11:13:26;;;;;;;3.20;1.48;;;22.50;99.90;;;;;;4975509;28;20064;-77
2023/08/05 11:16:10;;;;;;;2.03;1.40;;;22.50;99.90;;;;;;4978398;28;20046;-77
2023/08/05 11:18:36;;;;;;;;;;;22.40;99.90;;;;;;4986351;28;20054;-78
2023/08/05 11:21:05;;;;;;;3.35;1.60;;;22.40;99.90;;;;;;4972055;28;19971;-81
2023/08/05 11:23:31;;;;;;;4.38;1.80;;;22.40;99.90;;;;;;4984128;28;20039;-76
2023/08/05 11:26:00;;;;;;;4.07;2.00;;;22.60;99.90;;;;;;4969047;28;20041;-78
2023/08/05 11:28:27;;;;;;;2.42;1.67;;;22.60;99.90;;;;;;4974524;28;20038;-79
2023/08/05 11:30:53;;;;;;;3.00;1.70;;;22.90;99.90;;;;;;4976554;28;20559;-77
2023/08/05 11:33:21;;;;;;;4.07;1.80;;;22.80;99.90;;;;;;4975046;28;20125;-77
2023/08/05 11:35:48;;;;;;;3.17;1.52;;;22.90;99.90;;;;;;4974890;28;20474;-77
2023/08/05 11:38:18;;;;;;;3.20;1.60;;;22.80;99.90;;;;;;4956168;28;20038;-77
2023/08/05 11:40:46;;;;;;;3.25;2.00;;;22.70;99.90;;;;;;4977792;28;20050;-77
2023/08/05 11:43:14;;;;;;;2.90;1.77;;;22.70;99.90;;;;;;4985879;28;20071;-78
2023/08/05 11:45:40;;;;;;;2.78;1.73;;;22.60;99.90;;;;;;4985823;28;20042;-76
2023/08/05 11:48:23;;;;;;;3.35;1.98;;;22.60;99.90;;;;;;4969937;28;20524;-77
2023/08/05 11:50:51;;;;;;;2.45;1.48;;;22.50;99.90;;;;;;4980014;28;20046;-77
2023/08/05 11:53:19;;;;;;;4.32;1.77;;;22.50;99.90;;;;;;4977374;28;20581;-77
2023/08/05 11:55:46;;;;;;;2.60;1.67;;;22.50;99.90;;;;;;4970243;28;20124;-77
2023/08/05 11:58:23;;;;;;;3.35;1.60;;;22.40;99.90;;;;;;4970965;28;20046;-77
2023/08/05 12:00:53;;;;;;;4.75;2.33;;;22.50;99.90;;;;;;4974399;28;20126;-77
2023/08/05 12:03:19;;;;;;;3.35;2.17;;;22.50;99.90;;;;;;4983481;28;20041;-77
2023/08/05 12:05:46;;;;;;;3.22;1.95;;;22.30;99.90;;;;;;4986294;28;20521;-77
2023/08/05 12:08:13;;;;;;;4.47;2.20;;;22.10;99.90;;;;;;4971160;28;20449;-77
2023/08/05 12:10:44;;;;;;;4.55;2.50;;;22.20;99.90;;;;;;4976124;28;20404;-78
2023/08/05 12:13:09;;;;;;;4.25;2.25;;;22.10;99.90;;;;;;4965507;28;20038;-78
2023/08/05 12:15:36;;;;;;;4.47;2.30;;;22.00;99.90;;;;;;4977436;28;20449;-77
2023/08/05 12:18:03;;;;;;;4.32;2.30;;;22.00;99.90;;;;;;4970616;28;20046;-77
2023/08/05 12:20:34;;;;;;;3.13;2.03;;;21.70;99.90;;;;;;4973765;28;20049;-77
2023/08/05 12:23:01;;;;;;;4.22;2.30;;;21.60;99.90;;;;;;4974640;28;20129;-76
2023/08/05 12:25:28;;;;;;;4.53;2.67;;;21.60;99.90;;;;;;4973009;28;20057;-77
2023/08/05 12:27:54;;;;;;;6.25;2.30;;;21.50;99.90;;;;;;4973888;28;20085;-75
2023/08/05 12:30:20;;;;;;;4.00;2.30;;;21.50;99.90;;;;;;4974353;28;20498;-78
2023/08/05 12:32:46;;;;;;;4.15;2.22;;;21.40;99.90;;;;;;4973748;28;20049;-78
2023/08/05 12:35:12;;;;;;;3.13;2.30;;;21.30;99.90;;;;;;4973736;28;20473;-77
2023/08/05 12:37:39;;;;;;;4.40;2.50;;;21.10;99.90;;;;;;4974644;28;20078;-78
2023/08/05 12:40:07;;;;;;;4.65;2.58;;;21.00;99.90;;;;;;4973431;28;20116;-77
2023/08/05 12:42:33;;;;;;;5.10;3.00;;;20.80;99.90;;;;;;4973022;28;20038;-78
2023/08/05 12:45:03;;;;;;;6.65;2.80;;;20.90;99.90;;;;;;4964961;28;20090;-77